createdAt,value
2017-05-17T00:00:50.410Z,0
2017-05-17T00:02:00.556Z,0
2017-05-17T00:03:10.274Z,0
2017-05-17T00:04:20.376Z,0
2017-05-17T00:05:31.078Z,0
2017-05-17T00:06:41.291Z,0
2017-05-17T00:07:53.030Z,0
2017-05-17T00:09:04.131Z,0
2017-05-17T00:10:15.008Z,0
2017-05-17T00:11:25.788Z,0
2017-05-17T00:12:36.166Z,0
2017-05-17T00:13:45.132Z,0
2017-05-17T00:14:54.112Z,0
2017-05-17T00:16:03.696Z,0
2017-05-17T00:17:12.659Z,0
2017-05-17T00:18:21.618Z,0
2017-05-17T00:19:30.582Z,0
2017-05-17T00:20:39.545Z,0
2017-05-17T00:21:48.863Z,0
2017-05-17T00:22:57.833Z,0
2017-05-17T00:24:06.885Z,0
2017-05-17T00:25:15.845Z,0
2017-05-17T00:26:24.809Z,0
2017-05-17T00:27:34.683Z,0
2017-05-17T00:28:43.650Z,0
2017-05-17T00:29:52.612Z,0
2017-05-17T00:31:01.576Z,0
2017-05-17T00:32:10.538Z,0
2017-05-17T00:33:19.854Z,0
2017-05-17T00:34:28.819Z,0
2017-05-17T00:35:37.782Z,0
2017-05-17T00:36:46.751Z,0
2017-05-17T00:37:55.712Z,0
2017-05-17T00:39:04.983Z,0
2017-05-17T00:40:13.944Z,0
2017-05-17T00:41:22.905Z,0
2017-05-17T00:42:31.873Z,0
2017-05-17T00:43:40.835Z,0
2017-05-17T00:44:50.101Z,0
2017-05-17T00:45:59.063Z,0
2017-05-17T00:47:08.025Z,0
2017-05-17T00:48:16.988Z,0
2017-05-17T00:49:26.125Z,0
2017-05-17T00:50:35.491Z,0
2017-05-17T00:51:44.451Z,0
2017-05-17T00:52:53.414Z,0
2017-05-17T00:54:02.384Z,0
2017-05-17T00:55:11.345Z,0
2017-05-17T00:56:20.647Z,0
2017-05-17T00:57:29.692Z,0
2017-05-17T00:58:38.658Z,0
2017-05-17T00:59:47.706Z,0
2017-05-17T01:00:56.668Z,0
2017-05-17T01:02:05.878Z,0
2017-05-17T01:03:15.165Z,0
2017-05-17T01:04:24.132Z,0
2017-05-17T01:05:33.096Z,0
2017-05-17T01:06:42.058Z,0
2017-05-17T01:07:51.410Z,0
2017-05-17T01:09:00.378Z,0
2017-05-17T01:10:09.354Z,0
2017-05-17T01:11:18.316Z,0
2017-05-17T01:12:27.283Z,0
2017-05-17T01:13:36.543Z,0
2017-05-17T01:14:45.509Z,0
2017-05-17T01:15:54.792Z,0
2017-05-17T01:17:03.752Z,0
2017-05-17T01:18:12.712Z,0
2017-05-17T01:19:21.974Z,0
2017-05-17T01:20:30.938Z,0
2017-05-17T01:21:39.895Z,0
2017-05-17T01:22:48.856Z,0
2017-05-17T01:23:57.820Z,0
2017-05-17T01:25:07.082Z,0
2017-05-17T01:26:16.139Z,0
2017-05-17T01:27:25.099Z,0
2017-05-17T01:28:34.151Z,0
2017-05-17T01:29:43.115Z,0
2017-05-17T01:30:52.464Z,0
2017-05-17T01:32:01.425Z,0
2017-05-17T01:33:10.386Z,0
2017-05-17T01:34:19.438Z,0
2017-05-17T01:35:28.725Z,0
2017-05-17T01:36:37.992Z,0
2017-05-17T01:37:46.955Z,0
2017-05-17T01:38:55.921Z,0
2017-05-17T01:40:04.887Z,0
2017-05-17T01:41:13.846Z,0
2017-05-17T01:42:23.109Z,0
2017-05-17T01:43:32.072Z,0
2017-05-17T01:44:41.362Z,0
2017-05-17T01:45:50.326Z,0
2017-05-17T01:46:59.288Z,0
2017-05-17T01:48:08.647Z,0
2017-05-17T01:49:17.607Z,0
2017-05-17T01:50:26.565Z,0
2017-05-17T01:51:35.618Z,0
2017-05-17T01:52:44.603Z,0
2017-05-17T01:53:53.863Z,0
2017-05-17T01:55:02.827Z,0
2017-05-17T01:56:11.786Z,0
2017-05-17T01:57:20.751Z,0
2017-05-17T01:58:29.720Z,0
2017-05-17T01:59:38.934Z,0
2017-05-17T02:00:47.898Z,0
2017-05-17T02:01:56.879Z,0
2017-05-17T02:03:05.847Z,0
2017-05-17T02:04:14.811Z,0
2017-05-17T02:05:24.075Z,0
2017-05-17T02:06:33.036Z,0
2017-05-17T02:07:41.997Z,0
2017-05-17T02:08:50.968Z,0
2017-05-17T02:09:59.932Z,0
2017-05-17T02:11:09.198Z,0
2017-05-17T02:12:18.256Z,0
2017-05-17T02:13:27.216Z,0
2017-05-17T02:14:36.179Z,0
2017-05-17T02:15:45.231Z,0
2017-05-17T02:16:54.499Z,0
2017-05-17T02:18:03.463Z,0
2017-05-17T02:19:12.427Z,0
2017-05-17T02:20:21.389Z,0
2017-05-17T02:21:30.438Z,0
2017-05-17T02:22:40.024Z,0
2017-05-17T02:23:49.031Z,0
2017-05-17T02:24:58.083Z,0
2017-05-17T02:26:07.049Z,0
2017-05-17T02:27:16.011Z,0
2017-05-17T02:28:25.367Z,0
2017-05-17T02:29:34.330Z,0
2017-05-17T02:30:43.380Z,0
2017-05-17T02:31:52.344Z,0
2017-05-17T02:33:01.644Z,0
2017-05-17T02:34:10.908Z,0
2017-05-17T02:35:19.906Z,0
2017-05-17T02:36:28.961Z,0
2017-05-17T02:37:37.932Z,0
2017-05-17T02:38:46.988Z,0
2017-05-17T02:39:56.591Z,0
2017-05-17T02:41:05.880Z,0
2017-05-17T02:42:14.848Z,0
2017-05-17T02:43:23.807Z,4
2017-05-17T02:44:32.772Z,4
2017-05-17T02:45:42.037Z,0
2017-05-17T02:46:51.004Z,0
2017-05-17T02:48:00.053Z,4
2017-05-17T02:49:09.015Z,4
2017-05-17T02:50:18.238Z,4
2017-05-17T02:51:27.463Z,4
2017-05-17T02:52:36.518Z,8
2017-05-17T02:53:45.488Z,4
2017-05-17T02:54:54.457Z,8
2017-05-17T02:56:03.418Z,8
2017-05-17T02:57:12.685Z,8
2017-05-17T02:58:21.646Z,12
2017-05-17T02:59:30.605Z,8
2017-05-17T03:00:39.569Z,12
2017-05-17T03:01:48.536Z,12
2017-05-17T03:02:57.747Z,16
2017-05-17T03:04:06.709Z,16
2017-05-17T03:05:16.042Z,16
2017-05-17T03:06:25.004Z,20
2017-05-17T03:07:33.965Z,20
2017-05-17T03:08:43.230Z,20
2017-05-17T03:09:52.305Z,24
2017-05-17T03:11:01.276Z,24
2017-05-17T03:12:10.243Z,28
2017-05-17T03:13:19.206Z,28
2017-05-17T03:14:28.470Z,32
2017-05-17T03:15:37.521Z,36
2017-05-17T03:16:46.486Z,40
2017-05-17T03:17:55.456Z,44
2017-05-17T03:19:04.421Z,44
2017-05-17T03:20:13.380Z,52
2017-05-17T03:21:22.347Z,56
2017-05-17T03:22:31.310Z,60
2017-05-17T03:23:40.277Z,64
2017-05-17T03:24:49.244Z,72
2017-05-17T03:25:58.203Z,76
2017-05-17T03:27:07.164Z,84
2017-05-17T03:28:16.122Z,84
2017-05-17T03:29:25.240Z,92
2017-05-17T03:30:34.206Z,96
2017-05-17T03:31:43.306Z,104
2017-05-17T03:32:52.276Z,112
2017-05-17T03:34:01.243Z,112
2017-05-17T03:35:10.211Z,116
2017-05-17T03:36:19.171Z,120
2017-05-17T03:37:28.184Z,120
2017-05-17T03:38:37.156Z,128
2017-05-17T03:39:46.122Z,132
2017-05-17T03:40:55.086Z,132
2017-05-17T03:42:04.047Z,140
2017-05-17T03:43:13.329Z,152
2017-05-17T03:44:22.376Z,160
2017-05-17T03:45:31.336Z,164
2017-05-17T03:46:40.301Z,172
2017-05-17T03:47:49.310Z,176
2017-05-17T03:48:58.266Z,184
2017-05-17T03:50:07.315Z,192
2017-05-17T03:51:16.281Z,200
2017-05-17T03:52:25.245Z,212
2017-05-17T03:53:34.206Z,216
2017-05-17T03:54:43.223Z,228
2017-05-17T03:55:52.273Z,232
2017-05-17T03:57:01.234Z,236
2017-05-17T03:58:10.200Z,240
2017-05-17T03:59:19.163Z,252
2017-05-17T04:00:28.526Z,256
2017-05-17T04:01:37.486Z,264
2017-05-17T04:02:46.538Z,272
2017-05-17T04:03:55.551Z,276
2017-05-17T04:05:04.522Z,280
2017-05-17T04:06:13.482Z,288
2017-05-17T04:07:22.775Z,300
2017-05-17T04:08:31.830Z,316
2017-05-17T04:09:40.797Z,340
2017-05-17T04:10:49.806Z,360
2017-05-17T04:11:58.766Z,376
2017-05-17T04:13:07.730Z,392
2017-05-17T04:14:16.697Z,408
2017-05-17T04:15:25.665Z,420
2017-05-17T04:16:34.681Z,428
2017-05-17T04:17:43.700Z,444
2017-05-17T04:18:52.661Z,456
2017-05-17T04:20:01.712Z,476
2017-05-17T04:21:10.674Z,500
2017-05-17T04:22:19.640Z,520
2017-05-17T04:23:28.856Z,544
2017-05-17T04:24:37.815Z,568
2017-05-17T04:25:46.859Z,584
2017-05-17T04:26:55.826Z,592
2017-05-17T04:28:04.786Z,608
2017-05-17T04:29:14.058Z,624
2017-05-17T04:30:23.345Z,612
2017-05-17T04:31:32.393Z,592
2017-05-17T04:32:41.446Z,588
2017-05-17T04:33:50.413Z,596
2017-05-17T04:34:59.773Z,628
2017-05-17T04:36:08.740Z,660
2017-05-17T04:37:17.791Z,660
2017-05-17T04:38:26.750Z,656
2017-05-17T04:39:35.711Z,648
2017-05-17T04:40:45.008Z,636
2017-05-17T04:41:53.969Z,632
2017-05-17T04:43:02.933Z,636
2017-05-17T04:44:11.899Z,620
2017-05-17T04:45:20.868Z,608
2017-05-17T04:46:30.135Z,592
2017-05-17T04:47:39.158Z,572
2017-05-17T04:48:48.120Z,560
2017-05-17T04:49:57.169Z,528
2017-05-17T04:51:06.132Z,516
2017-05-17T04:52:15.345Z,520
2017-05-17T04:53:24.312Z,516
2017-05-17T04:54:33.281Z,508
2017-05-17T04:55:42.297Z,512
2017-05-17T04:56:51.258Z,520
2017-05-17T04:58:00.525Z,524
2017-05-17T04:59:09.494Z,532
2017-05-17T05:00:18.780Z,528
2017-05-17T05:01:27.743Z,532
2017-05-17T05:02:36.727Z,536
2017-05-17T05:03:45.938Z,540
2017-05-17T05:04:54.900Z,548
2017-05-17T05:06:03.861Z,540
2017-05-17T05:07:12.823Z,500
2017-05-17T05:08:21.840Z,512
2017-05-17T05:09:31.113Z,480
2017-05-17T05:10:40.069Z,476
2017-05-17T05:11:49.029Z,464
2017-05-17T05:12:57.993Z,472
2017-05-17T05:14:06.957Z,476
2017-05-17T05:15:16.227Z,476
2017-05-17T05:16:25.187Z,468
2017-05-17T05:17:34.151Z,464
2017-05-17T05:18:43.163Z,452
2017-05-17T05:19:52.124Z,448
2017-05-17T05:21:01.990Z,436
2017-05-17T05:22:10.978Z,432
2017-05-17T05:23:19.945Z,436
2017-05-17T05:24:28.924Z,448
2017-05-17T05:25:37.886Z,456
2017-05-17T05:26:47.149Z,460
2017-05-17T05:27:56.201Z,472
2017-05-17T05:29:05.171Z,464
2017-05-17T05:30:14.129Z,484
2017-05-17T05:31:23.091Z,520
2017-05-17T05:32:32.452Z,508
2017-05-17T05:33:41.427Z,552
2017-05-17T05:34:50.484Z,572
2017-05-17T05:35:59.508Z,652
2017-05-17T05:37:08.469Z,616
2017-05-17T05:38:17.789Z,668
2017-05-17T05:39:26.749Z,684
2017-05-17T05:40:35.713Z,700
2017-05-17T05:41:44.763Z,688
2017-05-17T05:42:53.722Z,688
2017-05-17T05:44:02.990Z,724
2017-05-17T05:45:11.964Z,736
2017-05-17T05:46:20.927Z,740
2017-05-17T05:47:29.978Z,760
2017-05-17T05:48:38.938Z,760
2017-05-17T05:49:48.287Z,768
2017-05-17T05:50:57.249Z,768
2017-05-17T05:52:06.211Z,788
2017-05-17T05:53:15.262Z,800
2017-05-17T05:54:24.229Z,800
2017-05-17T05:55:33.439Z,784
2017-05-17T05:56:42.407Z,764
2017-05-17T05:57:51.373Z,800
2017-05-17T05:59:00.342Z,828
2017-05-17T06:00:09.391Z,864
2017-05-17T06:01:18.603Z,864
2017-05-17T06:02:27.571Z,876
2017-05-17T06:03:36.540Z,892
2017-05-17T06:04:45.504Z,904
2017-05-17T06:05:54.566Z,916
2017-05-17T06:07:03.780Z,920
2017-05-17T06:08:12.739Z,928
2017-05-17T06:09:21.794Z,936
2017-05-17T06:10:30.806Z,944
2017-05-17T06:11:39.769Z,948
2017-05-17T06:12:48.980Z,944
2017-05-17T06:13:58.026Z,960
2017-05-17T06:15:06.989Z,968
2017-05-17T06:16:15.947Z,976
2017-05-17T06:17:24.912Z,972
2017-05-17T06:18:34.228Z,980
2017-05-17T06:19:43.263Z,1064
2017-05-17T06:20:52.230Z,1648
2017-05-17T06:22:01.198Z,2348
2017-05-17T06:23:10.263Z,2024
2017-05-17T06:24:20.025Z,1548
2017-05-17T06:25:29.122Z,1164
2017-05-17T06:26:38.206Z,1228
2017-05-17T06:27:47.322Z,1332
2017-05-17T06:28:56.386Z,1092
2017-05-17T06:30:05.652Z,1084
2017-05-17T06:31:14.852Z,1084
2017-05-17T06:32:24.047Z,1084
2017-05-17T06:33:33.072Z,1072
2017-05-17T06:34:42.139Z,1076
2017-05-17T06:35:51.409Z,1124
2017-05-17T06:37:00.373Z,1120
2017-05-17T06:38:09.987Z,1124
2017-05-17T06:39:18.960Z,1140
2017-05-17T06:40:27.923Z,1156
2017-05-17T06:41:37.348Z,1144
2017-05-17T06:42:46.320Z,1136
2017-05-17T06:43:55.522Z,1128
2017-05-17T06:45:04.935Z,1128
2017-05-17T06:46:14.931Z,1136
2017-05-17T06:47:27.454Z,1132
2017-05-17T06:48:38.713Z,1136
2017-05-17T06:49:49.092Z,1136
2017-05-17T06:50:58.333Z,1156
2017-05-17T06:52:08.077Z,1176
2017-05-17T06:53:18.386Z,1192
2017-05-17T06:54:27.982Z,1212
2017-05-17T06:55:37.420Z,1100
2017-05-17T06:56:47.125Z,1096
2017-05-17T06:57:56.499Z,1104
2017-05-17T06:59:06.287Z,1116
2017-05-17T07:00:15.900Z,1116
2017-05-17T07:01:25.898Z,1116
2017-05-17T07:02:35.314Z,1096
2017-05-17T07:03:44.632Z,1084
2017-05-17T07:04:54.694Z,1104
2017-05-17T07:06:04.391Z,1096
2017-05-17T07:07:13.956Z,1100
2017-05-17T07:08:23.773Z,1108
2017-05-17T07:09:33.146Z,1116
2017-05-17T07:10:43.181Z,1132
2017-05-17T07:11:52.629Z,1128
2017-05-17T07:13:02.151Z,1136
2017-05-17T07:14:11.609Z,1136
2017-05-17T07:15:21.063Z,1148
2017-05-17T07:16:33.195Z,1156
2017-05-17T07:17:44.003Z,1156
2017-05-17T07:18:53.262Z,1172
2017-05-17T07:20:02.736Z,1196
2017-05-17T07:21:12.642Z,1204
2017-05-17T07:22:22.366Z,1220
2017-05-17T07:23:32.169Z,1248
2017-05-17T07:24:41.519Z,1264
2017-05-17T07:25:51.048Z,1272
2017-05-17T07:27:00.435Z,1264
2017-05-17T07:28:10.373Z,1248
2017-05-17T07:29:19.703Z,1264
2017-05-17T07:30:29.099Z,1288
2017-05-17T07:31:38.642Z,1288
2017-05-17T07:32:48.457Z,1292
2017-05-17T07:33:58.254Z,1304
2017-05-17T07:35:07.610Z,1300
2017-05-17T07:36:17.009Z,1304
2017-05-17T07:37:26.445Z,1276
2017-05-17T07:38:36.120Z,1308
2017-05-17T07:39:46.004Z,1300
2017-05-17T07:40:55.469Z,1304
2017-05-17T07:42:04.547Z,1312
2017-05-17T07:43:13.537Z,1328
2017-05-17T07:44:22.591Z,1324
2017-05-17T07:45:31.899Z,1336
2017-05-17T07:46:40.868Z,1348
2017-05-17T07:47:49.844Z,1368
2017-05-17T07:48:58.812Z,1380
2017-05-17T07:50:07.781Z,1412
2017-05-17T07:51:17.043Z,1416
2017-05-17T07:52:26.094Z,1440
2017-05-17T07:53:35.057Z,1448
2017-05-17T07:54:44.016Z,1480
2017-05-17T07:55:52.989Z,1368
2017-05-17T07:57:02.273Z,1472
2017-05-17T07:58:11.239Z,1448
2017-05-17T07:59:20.209Z,1520
2017-05-17T08:00:29.171Z,1540
2017-05-17T08:01:38.136Z,1544
2017-05-17T08:02:47.409Z,1680
2017-05-17T08:03:56.378Z,1704
2017-05-17T08:05:05.438Z,1640
2017-05-17T08:06:14.536Z,1672
2017-05-17T08:07:23.521Z,1712
2017-05-17T08:08:32.783Z,1720
2017-05-17T08:09:41.838Z,1736
2017-05-17T08:10:50.794Z,1792
2017-05-17T08:11:59.757Z,1856
2017-05-17T08:13:08.723Z,1852
2017-05-17T08:14:17.937Z,1852
2017-05-17T08:15:26.913Z,1912
2017-05-17T08:16:35.877Z,1976
2017-05-17T08:17:44.933Z,2040
2017-05-17T08:18:53.898Z,2096
2017-05-17T08:20:03.162Z,2108
2017-05-17T08:21:12.125Z,2164
2017-05-17T08:22:21.094Z,2148
2017-05-17T08:23:30.061Z,2148
2017-05-17T08:24:39.030Z,2204
2017-05-17T08:25:48.291Z,2276
2017-05-17T08:26:57.256Z,2412
2017-05-17T08:28:06.232Z,2560
2017-05-17T08:29:15.198Z,2648
2017-05-17T08:30:24.160Z,2676
2017-05-17T08:31:33.379Z,2704
2017-05-17T08:32:42.343Z,2816
2017-05-17T08:33:51.312Z,2748
2017-05-17T08:35:00.429Z,2776
2017-05-17T08:36:09.394Z,2792
2017-05-17T08:37:18.662Z,2832
2017-05-17T08:38:27.638Z,2836
2017-05-17T08:39:36.686Z,2872
2017-05-17T08:40:45.660Z,2864
2017-05-17T08:41:54.622Z,2880
2017-05-17T08:43:03.887Z,2880
2017-05-17T08:44:12.942Z,2892
2017-05-17T08:45:21.910Z,2908
2017-05-17T08:46:30.876Z,2944
2017-05-17T08:47:39.843Z,2952
2017-05-17T08:48:49.110Z,2896
2017-05-17T08:49:58.082Z,2840
2017-05-17T08:51:07.051Z,2788
2017-05-17T08:52:16.016Z,2760
2017-05-17T08:53:25.073Z,2660
2017-05-17T08:54:34.298Z,2692
2017-05-17T08:55:43.267Z,2760
2017-05-17T08:56:52.238Z,2672
2017-05-17T08:58:01.204Z,2708
2017-05-17T08:59:10.170Z,2640
2017-05-17T09:00:19.479Z,2492
2017-05-17T09:01:28.536Z,2348
2017-05-17T09:02:37.502Z,2252
2017-05-17T09:03:46.471Z,2252
2017-05-17T09:04:55.452Z,2144
2017-05-17T09:06:04.717Z,2028
2017-05-17T09:07:14.006Z,1968
2017-05-17T09:08:22.975Z,1948
2017-05-17T09:09:31.952Z,1932
2017-05-17T09:10:40.922Z,1900
2017-05-17T09:11:50.193Z,1896
2017-05-17T09:12:59.255Z,1872
2017-05-17T09:14:08.545Z,1848
2017-05-17T09:15:17.532Z,1804
2017-05-17T09:16:26.506Z,1776
2017-05-17T09:17:35.731Z,1764
2017-05-17T09:18:44.784Z,1792
2017-05-17T09:19:54.089Z,1812
2017-05-17T09:21:03.374Z,1804
2017-05-17T09:22:12.350Z,1836
2017-05-17T09:23:21.615Z,1876
2017-05-17T09:24:30.584Z,1964
2017-05-17T09:25:39.551Z,2036
2017-05-17T09:26:48.519Z,2104
2017-05-17T09:27:57.822Z,2064
2017-05-17T09:29:07.036Z,2044
2017-05-17T09:30:16.005Z,2036
2017-05-17T09:31:25.019Z,2060
2017-05-17T09:32:33.986Z,2096
2017-05-17T09:33:43.008Z,2024
2017-05-17T09:34:52.277Z,2024
2017-05-17T09:36:01.247Z,2052
2017-05-17T09:37:10.210Z,2056
2017-05-17T09:38:19.515Z,2072
2017-05-17T09:39:28.482Z,2100
2017-05-17T09:40:37.698Z,2124
2017-05-17T09:41:46.658Z,2104
2017-05-17T09:42:55.626Z,2064
2017-05-17T09:44:04.593Z,2020
2017-05-17T09:45:13.551Z,1996
2017-05-17T09:46:23.136Z,1960
2017-05-17T09:47:32.102Z,1884
2017-05-17T09:48:41.076Z,1912
2017-05-17T09:49:50.039Z,1876
2017-05-17T09:50:59.046Z,1892
2017-05-17T09:52:08.327Z,1852
2017-05-17T09:53:17.298Z,1836
2017-05-17T09:54:26.264Z,1820
2017-05-17T09:55:35.230Z,1856
2017-05-17T09:56:44.196Z,1868
2017-05-17T09:57:53.470Z,1788
2017-05-17T09:59:02.441Z,1872
2017-05-17T10:00:11.413Z,1876
2017-05-17T10:01:20.475Z,1864
2017-05-17T10:02:29.447Z,1872
2017-05-17T10:03:38.665Z,1872
2017-05-17T10:04:47.633Z,1856
2017-05-17T10:05:56.602Z,1892
2017-05-17T10:07:05.657Z,1892
2017-05-17T10:08:14.622Z,1880
2017-05-17T10:09:23.892Z,1904
2017-05-17T10:10:32.870Z,1884
2017-05-17T10:11:41.836Z,1912
2017-05-17T10:12:50.807Z,1932
2017-05-17T10:13:59.783Z,1912
2017-05-17T10:15:09.049Z,1936
2017-05-17T10:16:18.015Z,1940
2017-05-17T10:17:26.977Z,1936
2017-05-17T10:18:35.955Z,1832
2017-05-17T10:19:45.250Z,1940
2017-05-17T10:20:54.467Z,1904
2017-05-17T10:22:03.436Z,1848
2017-05-17T10:23:12.411Z,1800
2017-05-17T10:24:21.464Z,1772
2017-05-17T10:25:30.512Z,1772
2017-05-17T10:26:39.870Z,1820
2017-05-17T10:27:49.017Z,1824
2017-05-17T10:28:57.988Z,1832
2017-05-17T10:30:06.958Z,1828
2017-05-17T10:31:15.927Z,1832
2017-05-17T10:32:25.605Z,1844
2017-05-17T10:33:34.575Z,1800
2017-05-17T10:34:43.544Z,1728
2017-05-17T10:35:52.511Z,1772
2017-05-17T10:37:01.477Z,1748
2017-05-17T10:38:10.698Z,1760
2017-05-17T10:39:19.664Z,1720
2017-05-17T10:40:28.632Z,1664
2017-05-17T10:41:37.760Z,1640
2017-05-17T10:42:46.729Z,1600
2017-05-17T10:43:55.995Z,1636
2017-05-17T10:45:04.965Z,1636
2017-05-17T10:46:13.928Z,1544
2017-05-17T10:47:22.899Z,1544
2017-05-17T10:48:31.864Z,1528
2017-05-17T10:49:41.083Z,1576
2017-05-17T10:50:50.054Z,1608
2017-05-17T10:51:59.030Z,1708
2017-05-17T10:53:08.321Z,1752
2017-05-17T10:54:17.286Z,1744
2017-05-17T10:55:26.504Z,1740
2017-05-17T10:56:35.469Z,1772
2017-05-17T10:57:44.492Z,1748
2017-05-17T10:58:53.454Z,1760
2017-05-17T11:00:02.510Z,1772
2017-05-17T11:01:11.736Z,1780
2017-05-17T11:02:20.701Z,1788
2017-05-17T11:03:29.994Z,1780
2017-05-17T11:04:38.960Z,1788
2017-05-17T11:05:47.927Z,1772
2017-05-17T11:06:57.140Z,1796
2017-05-17T11:08:06.109Z,1808
2017-05-17T11:09:15.082Z,1808
2017-05-17T11:10:24.131Z,1836
2017-05-17T11:11:33.103Z,1844
2017-05-17T11:12:42.325Z,1820
2017-05-17T11:13:51.291Z,1796
2017-05-17T11:15:00.261Z,1804
2017-05-17T11:16:09.228Z,1776
2017-05-17T11:17:18.199Z,1756
2017-05-17T11:18:27.474Z,1756
2017-05-17T11:19:36.440Z,1788
2017-05-17T11:20:45.498Z,1788
2017-05-17T11:21:54.464Z,1800
2017-05-17T11:23:03.433Z,1788
2017-05-17T11:24:12.653Z,1776
2017-05-17T11:25:21.624Z,1728
2017-05-17T11:26:30.591Z,1712
2017-05-17T11:27:39.556Z,1716
2017-05-17T11:28:48.528Z,1680
2017-05-17T11:29:58.119Z,1656
2017-05-17T11:31:07.088Z,1628
2017-05-17T11:32:16.060Z,1668
2017-05-17T11:33:25.114Z,1672
2017-05-17T11:34:34.085Z,1664
2017-05-17T11:35:43.304Z,1664
2017-05-17T11:36:52.272Z,1684
2017-05-17T11:38:01.330Z,1692
2017-05-17T11:39:10.392Z,1688
2017-05-17T11:40:19.358Z,1676
2017-05-17T11:41:28.665Z,1660
2017-05-17T11:42:37.641Z,1656
2017-05-17T11:43:46.611Z,1652
2017-05-17T11:44:55.670Z,1648
2017-05-17T11:46:04.638Z,1656
2017-05-17T11:47:13.989Z,1660
2017-05-17T11:48:22.956Z,1660
2017-05-17T11:49:31.933Z,1664
2017-05-17T11:50:40.903Z,1708
2017-05-17T11:51:49.878Z,1736
2017-05-17T11:52:59.148Z,1660
2017-05-17T11:54:08.112Z,1628
2017-05-17T11:55:17.077Z,1624
2017-05-17T11:56:26.054Z,1620
2017-05-17T11:57:35.023Z,1608
2017-05-17T11:58:44.299Z,1580
2017-05-17T11:59:53.266Z,1572
2017-05-17T12:01:02.234Z,1552
2017-05-17T12:02:11.291Z,1540
2017-05-17T12:03:20.347Z,1520
2017-05-17T12:04:29.618Z,1500
2017-05-17T12:05:38.583Z,1476
2017-05-17T12:06:47.561Z,1460
2017-05-17T12:07:56.526Z,1456
2017-05-17T12:09:05.500Z,1476
2017-05-17T12:10:14.769Z,1480
2017-05-17T12:11:23.823Z,1468
2017-05-17T12:12:32.783Z,1480
2017-05-17T12:13:42.078Z,1448
2017-05-17T12:14:51.049Z,1464
2017-05-17T12:16:00.289Z,1472
2017-05-17T12:17:09.343Z,1488
2017-05-17T12:18:18.309Z,1472
2017-05-17T12:19:27.282Z,1468
2017-05-17T12:20:36.247Z,1456
2017-05-17T12:21:45.465Z,1448
2017-05-17T12:22:54.763Z,1440
2017-05-17T12:24:03.736Z,1432
2017-05-17T12:25:12.709Z,1428
2017-05-17T12:26:21.672Z,1432
2017-05-17T12:27:30.994Z,1424
2017-05-17T12:28:39.959Z,1380
2017-05-17T12:29:49.015Z,1404
2017-05-17T12:30:57.984Z,1376
2017-05-17T12:32:06.953Z,1384
2017-05-17T12:33:16.228Z,1396
2017-05-17T12:34:25.525Z,1404
2017-05-17T12:35:34.504Z,1424
2017-05-17T12:36:43.473Z,1436
2017-05-17T12:37:52.442Z,1424
2017-05-17T12:39:01.714Z,1428
2017-05-17T12:40:10.684Z,1432
2017-05-17T12:41:19.657Z,1432
2017-05-17T12:42:28.626Z,1480
2017-05-17T12:43:37.601Z,1596
2017-05-17T12:44:46.957Z,1752
2017-05-17T12:45:55.924Z,1752
2017-05-17T12:47:04.892Z,1676
2017-05-17T12:48:13.862Z,1628
2017-05-17T12:49:22.831Z,1476
2017-05-17T12:50:32.103Z,1420
2017-05-17T12:51:41.072Z,1448
2017-05-17T12:52:50.048Z,1460
2017-05-17T12:53:59.019Z,1536
2017-05-17T12:55:08.044Z,1564
2017-05-17T12:56:17.305Z,1484
2017-05-17T12:57:26.277Z,1452
2017-05-17T12:58:35.248Z,1440
2017-05-17T12:59:44.218Z,1464
2017-05-17T13:00:53.180Z,1452
2017-05-17T13:02:02.445Z,1452
2017-05-17T13:03:11.415Z,1472
2017-05-17T13:04:20.390Z,1464
2017-05-17T13:05:29.364Z,1468
2017-05-17T13:06:38.330Z,1476
2017-05-17T13:07:47.549Z,1480
2017-05-17T13:08:56.852Z,1468
2017-05-17T13:10:05.814Z,1468
2017-05-17T13:11:14.777Z,1484
2017-05-17T13:12:23.836Z,1484
2017-05-17T13:13:33.105Z,1496
2017-05-17T13:14:42.075Z,1496
2017-05-17T13:15:51.044Z,1480
2017-05-17T13:17:00.008Z,1468
2017-05-17T13:18:08.981Z,1500
2017-05-17T13:19:18.258Z,1468
2017-05-17T13:20:27.227Z,1096
2017-05-17T13:21:36.284Z,704
2017-05-17T13:22:45.340Z,1060
2017-05-17T13:23:54.325Z,924
2017-05-17T13:25:03.544Z,1508
2017-05-17T13:26:12.511Z,1512
2017-05-17T13:27:21.569Z,1480
2017-05-17T13:28:30.620Z,1512
2017-05-17T13:29:39.589Z,1504
2017-05-17T13:30:48.810Z,1536
2017-05-17T13:31:57.796Z,1524
2017-05-17T13:33:06.761Z,1524
2017-05-17T13:34:15.746Z,1524
2017-05-17T13:35:24.716Z,1540
2017-05-17T13:36:33.990Z,1532
2017-05-17T13:37:42.959Z,1532
2017-05-17T13:38:51.925Z,1532
2017-05-17T13:40:01.231Z,1508
2017-05-17T13:41:10.194Z,1500
2017-05-17T13:42:19.458Z,1500
2017-05-17T13:43:28.427Z,1528
2017-05-17T13:44:37.397Z,1516
2017-05-17T13:45:46.365Z,1540
2017-05-17T13:46:55.337Z,1508
2017-05-17T13:48:04.554Z,1496
2017-05-17T13:49:13.520Z,1524
2017-05-17T13:50:22.481Z,1472
2017-05-17T13:51:31.458Z,1448
2017-05-17T13:52:40.428Z,1456
2017-05-17T13:53:49.689Z,1460
2017-05-17T13:54:58.657Z,1448
2017-05-17T13:56:07.723Z,1460
2017-05-17T13:57:16.733Z,1472
2017-05-17T13:58:25.705Z,1492
2017-05-17T13:59:35.063Z,1476
2017-05-17T14:00:44.035Z,1456
2017-05-17T14:01:53.002Z,1420
2017-05-17T14:03:01.964Z,1448
2017-05-17T14:04:10.928Z,1452
2017-05-17T14:05:20.200Z,1456
2017-05-17T14:06:29.222Z,1456
2017-05-17T14:07:38.207Z,1448
2017-05-17T14:08:47.175Z,1448
2017-05-17T14:09:56.146Z,1416
2017-05-17T14:11:05.519Z,1412
2017-05-17T14:12:14.487Z,1408
2017-05-17T14:13:23.462Z,1400
2017-05-17T14:14:32.521Z,1376
2017-05-17T14:15:41.484Z,1376
2017-05-17T14:16:50.703Z,1340
2017-05-17T14:17:59.670Z,1360
2017-05-17T14:19:08.634Z,1344
2017-05-17T14:20:17.610Z,1352
2017-05-17T14:21:26.903Z,1340
2017-05-17T14:22:36.171Z,1348
2017-05-17T14:23:45.134Z,1344
2017-05-17T14:24:54.100Z,1352
2017-05-17T14:26:03.071Z,1348
2017-05-17T14:27:12.122Z,1356
2017-05-17T14:28:21.395Z,1364
2017-05-17T14:29:30.378Z,1396
2017-05-17T14:30:39.441Z,1404
2017-05-17T14:31:48.407Z,1436
2017-05-17T14:32:57.377Z,1396
2017-05-17T14:34:06.645Z,1400
2017-05-17T14:35:15.615Z,1412
2017-05-17T14:36:24.575Z,1376
2017-05-17T14:37:33.543Z,1356
2017-05-17T14:38:42.510Z,1352
2017-05-17T14:39:51.791Z,1332
2017-05-17T14:41:00.756Z,1308
2017-05-17T14:42:09.719Z,1324
2017-05-17T14:43:18.690Z,1316
2017-05-17T14:44:27.663Z,1304
2017-05-17T14:45:36.937Z,1292
2017-05-17T14:46:45.913Z,1268
2017-05-17T14:47:54.882Z,1272
2017-05-17T14:49:03.938Z,1292
2017-05-17T14:50:12.909Z,1316
2017-05-17T14:51:22.177Z,1332
2017-05-17T14:52:31.159Z,1320
2017-05-17T14:53:40.221Z,1268
2017-05-17T14:54:49.188Z,1236
2017-05-17T14:55:58.155Z,1216
2017-05-17T14:57:07.427Z,1204
2017-05-17T14:58:16.424Z,1172
2017-05-17T14:59:25.389Z,1216
2017-05-17T15:00:34.362Z,1232
2017-05-17T15:01:43.673Z,1256
2017-05-17T15:02:53.037Z,1256
2017-05-17T15:04:02.083Z,1120
2017-05-17T15:05:11.369Z,1112
2017-05-17T15:06:20.573Z,1112
2017-05-17T15:07:29.671Z,1072
2017-05-17T15:08:39.181Z,1084
2017-05-17T15:09:48.377Z,1060
2017-05-17T15:10:57.498Z,1016
2017-05-17T15:12:07.093Z,1056
2017-05-17T15:13:16.157Z,1056
2017-05-17T15:14:25.578Z,1044
2017-05-17T15:15:35.043Z,1040
2017-05-17T15:16:44.390Z,1032
2017-05-17T15:17:53.698Z,1008
2017-05-17T15:19:02.882Z,992
2017-05-17T15:20:12.471Z,980
2017-05-17T15:21:21.624Z,952
2017-05-17T15:22:31.046Z,912
2017-05-17T15:23:40.435Z,908
2017-05-17T15:24:49.561Z,872
2017-05-17T15:25:58.987Z,896
2017-05-17T15:27:08.101Z,916
2017-05-17T15:28:17.471Z,916
2017-05-17T15:29:26.610Z,916
2017-05-17T15:30:36.623Z,876
2017-05-17T15:31:46.124Z,840
2017-05-17T15:32:55.349Z,892
2017-05-17T15:34:04.736Z,848
2017-05-17T15:35:13.946Z,760
2017-05-17T15:36:23.122Z,768
2017-05-17T15:37:32.623Z,792
2017-05-17T15:38:41.798Z,780
2017-05-17T15:39:51.110Z,788
2017-05-17T15:41:00.533Z,836
2017-05-17T15:42:09.871Z,724
2017-05-17T15:43:19.182Z,844
2017-05-17T15:44:28.348Z,832
2017-05-17T15:45:37.409Z,816
2017-05-17T15:46:46.379Z,800